sensor_id;sensor_type;location;lat;lon;timestamp;temperature;humidity
11532;DHT22;5822;51.000;5.874;2023-06-19T00:02:00;23.10;99.90
11532;DHT22;5822;51.000;5.874;2023-06-19T00:04:25;23.00;99.90
11532;DHT22;5822;51.000;5.874;2023-06-19T00:06:52;23.00;99.90
11532;DHT22;5822;51.000;5.874;2023-06-19T00:09:18;23.00;99.90
11532;DHT22;5822;51.000;5.874;2023-06-19T00:11:44;23.00;99.90
11532;DHT22;5822;51.000;5.874;2023-06-19T00:14:10;23.00;99.90
11532;DHT22;5822;51.000;5.874;2023-06-19T00:16:35;23.00;99.90
11532;DHT22;5822;51.000;5.874;2023-06-19T00:19:01;23.00;99.90
11532;DHT22;5822;51.000;5.874;2023-06-19T00:21:29;23.00;99.90
11532;DHT22;5822;51.000;5.874;2023-06-19T00:23:55;22.90;99.90
11532;DHT22;5822;51.000;5.874;2023-06-19T00:26:21;22.90;99.90
11532;DHT22;5822;51.000;5.874;2023-06-19T00:28:51;22.90;99.90
11532;DHT22;5822;51.000;5.874;2023-06-19T00:31:17;22.90;99.90
11532;DHT22;5822;51.000;5.874;2023-06-19T00:33:44;22.90;99.90
11532;DHT22;5822;51.000;5.874;2023-06-19T00:36:11;22.90;99.90
11532;DHT22;5822;51.000;5.874;2023-06-19T00:38:38;22.90;99.90
11532;DHT22;5822;51.000;5.874;2023-06-19T00:41:04;22.80;99.90
11532;DHT22;5822;51.000;5.874;2023-06-19T00:43:34;22.90;99.90
11532;DHT22;5822;51.000;5.874;2023-06-19T00:46:01;22.90;99.90
11532;DHT22;5822;51.000;5.874;2023-06-19T00:48:28;22.90;99.90
11532;DHT22;5822;51.000;5.874;2023-06-19T00:50:55;22.90;99.90
11532;DHT22;5822;51.000;5.874;2023-06-19T00:53:22;22.80;99.90
11532;DHT22;5822;51.000;5.874;2023-06-19T00:55:48;22.80;99.90
11532;DHT22;5822;51.000;5.874;2023-06-19T00:58:15;22.90;99.90
11532;DHT22;5822;51.000;5.874;2023-06-19T01:00:41;22.90;99.90
11532;DHT22;5822;51.000;5.874;2023-06-19T01:03:06;22.90;99.90
11532;DHT22;5822;51.000;5.874;2023-06-19T01:05:32;22.90;99.90
11532;DHT22;5822;51.000;5.874;2023-06-19T01:10:57;22.90;99.90
11532;DHT22;5822;51.000;5.874;2023-06-19T01:15:56;22.80;99.90
11532;DHT22;5822;51.000;5.874;2023-06-19T01:18:24;22.80;99.90
11532;DHT22;5822;51.000;5.874;2023-06-19T01:20:50;22.80;99.90
11532;DHT22;5822;51.000;5.874;2023-06-19T01:23:16;22.80;99.90
11532;DHT22;5822;51.000;5.874;2023-06-19T01:25:41;22.80;99.90
11532;DHT22;5822;51.000;5.874;2023-06-19T01:28:09;22.70;99.90
11532;DHT22;5822;51.000;5.874;2023-06-19T01:30:37;22.70;99.90
11532;DHT22;5822;51.000;5.874;2023-06-19T01:33:08;22.70;99.90
11532;DHT22;5822;51.000;5.874;2023-06-19T01:35:36;22.70;99.90
11532;DHT22;5822;51.000;5.874;2023-06-19T01:38:05;22.70;99.90
11532;DHT22;5822;51.000;5.874;2023-06-19T01:40:31;22.70;99.90
11532;DHT22;5822;51.000;5.874;2023-06-19T01:42:58;22.60;99.90
11532;DHT22;5822;51.000;5.874;2023-06-19T01:45:28;22.70;99.90
11532;DHT22;5822;51.000;5.874;2023-06-19T01:47:54;22.70;99.90
11532;DHT22;5822;51.000;5.874;2023-06-19T01:50:21;22.70;99.90
11532;DHT22;5822;51.000;5.874;2023-06-19T01:52:47;22.60;99.90
11532;DHT22;5822;51.000;5.874;2023-06-19T01:55:14;22.60;99.90
11532;DHT22;5822;51.000;5.874;2023-06-19T01:57:39;22.60;99.90
11532;DHT22;5822;51.000;5.874;2023-06-19T02:00:06;22.60;99.90
11532;DHT22;5822;51.000;5.874;2023-06-19T02:02:36;22.60;99.90
11532;DHT22;5822;51.000;5.874;2023-06-19T02:05:02;22.60;99.90
11532;DHT22;5822;51.000;5.874;2023-06-19T02:07:28;22.60;99.90
11532;DHT22;5822;51.000;5.874;2023-06-19T02:09:53;22.50;99.90
11532;DHT22;5822;51.000;5.874;2023-06-19T02:12:19;22.60;99.90
11532;DHT22;5822;51.000;5.874;2023-06-19T02:14:45;22.50;99.90
11532;DHT22;5822;51.000;5.874;2023-06-19T02:17:10;22.50;99.90
11532;DHT22;5822;51.000;5.874;2023-06-19T02:19:36;22.50;99.90
11532;DHT22;5822;51.000;5.874;2023-06-19T02:22:02;22.50;99.90
11532;DHT22;5822;51.000;5.874;2023-06-19T02:24:27;22.40;99.90
11532;DHT22;5822;51.000;5.874;2023-06-19T02:26:53;22.40;99.90
11532;DHT22;5822;51.000;5.874;2023-06-19T02:29:19;22.40;99.90
11532;DHT22;5822;51.000;5.874;2023-06-19T02:31:45;22.40;99.90
11532;DHT22;5822;51.000;5.874;2023-06-19T02:34:11;22.40;99.90
11532;DHT22;5822;51.000;5.874;2023-06-19T02:36:36;22.40;99.90
11532;DHT22;5822;51.000;5.874;2023-06-19T02:39:05;22.40;99.90
11532;DHT22;5822;51.000;5.874;2023-06-19T02:41:32;22.40;99.90
11532;DHT22;5822;51.000;5.874;2023-06-19T02:44:00;22.40;99.90
11532;DHT22;5822;51.000;5.874;2023-06-19T02:46:25;22.40;99.90
11532;DHT22;5822;51.000;5.874;2023-06-19T02:48:51;22.40;99.90
11532;DHT22;5822;51.000;5.874;2023-06-19T02:51:17;22.30;99.90
11532;DHT22;5822;51.000;5.874;2023-06-19T02:53:42;22.30;99.90
11532;DHT22;5822;51.000;5.874;2023-06-19T02:56:10;22.30;99.90
11532;DHT22;5822;51.000;5.874;2023-06-19T02:58:36;22.20;99.90
11532;DHT22;5822;51.000;5.874;2023-06-19T03:01:03;22.20;99.90
11532;DHT22;5822;51.000;5.874;2023-06-19T03:03:29;22.10;99.90
11532;DHT22;5822;51.000;5.874;2023-06-19T03:05:56;22.10;99.90
11532;DHT22;5822;51.000;5.874;2023-06-19T03:08:21;22.10;99.90
11532;DHT22;5822;51.000;5.874;2023-06-19T03:10:47;22.20;99.90
11532;DHT22;5822;51.000;5.874;2023-06-19T03:13:13;22.10;99.90
11532;DHT22;5822;51.000;5.874;2023-06-19T03:15:39;22.10;99.90
11532;DHT22;5822;51.000;5.874;2023-06-19T03:18:05;22.10;99.90
11532;DHT22;5822;51.000;5.874;2023-06-19T03:20:32;22.10;99.90
11532;DHT22;5822;51.000;5.874;2023-06-19T03:22:58;22.10;99.90
11532;DHT22;5822;51.000;5.874;2023-06-19T03:25:24;22.10;99.90
11532;DHT22;5822;51.000;5.874;2023-06-19T03:27:49;22.10;99.90
11532;DHT22;5822;51.000;5.874;2023-06-19T03:30:15;22.10;99.90
11532;DHT22;5822;51.000;5.874;2023-06-19T03:32:44;22.10;99.90
11532;DHT22;5822;51.000;5.874;2023-06-19T03:35:09;22.10;99.90
11532;DHT22;5822;51.000;5.874;2023-06-19T03:37:36;22.10;99.90
11532;DHT22;5822;51.000;5.874;2023-06-19T03:40:01;22.10;99.90
11532;DHT22;5822;51.000;5.874;2023-06-19T03:42:31;22.10;99.90
11532;DHT22;5822;51.000;5.874;2023-06-19T03:44:57;22.10;99.90
11532;DHT22;5822;51.000;5.874;2023-06-19T03:47:23;22.10;99.90
11532;DHT22;5822;51.000;5.874;2023-06-19T03:49:48;22.10;99.90
11532;DHT22;5822;51.000;5.874;2023-06-19T03:52:14;22.10;99.90
11532;DHT22;5822;51.000;5.874;2023-06-19T03:54:40;22.10;99.90
11532;DHT22;5822;51.000;5.874;2023-06-19T03:57:05;22.10;99.90
11532;DHT22;5822;51.000;5.874;2023-06-19T03:59:31;22.10;99.90
11532;DHT22;5822;51.000;5.874;2023-06-19T04:01:57;22.00;99.90
11532;DHT22;5822;51.000;5.874;2023-06-19T04:04:23;22.10;99.90
11532;DHT22;5822;51.000;5.874;2023-06-19T04:06:49;22.00;99.90
11532;DHT22;5822;51.000;5.874;2023-06-19T04:09:15;22.00;99.90
11532;DHT22;5822;51.000;5.874;2023-06-19T04:11:41;22.00;99.90
11532;DHT22;5822;51.000;5.874;2023-06-19T04:14:07;22.00;99.90
11532;DHT22;5822;51.000;5.874;2023-06-19T04:16:32;22.00;99.90
11532;DHT22;5822;51.000;5.874;2023-06-19T04:18:58;22.00;99.90
11532;DHT22;5822;51.000;5.874;2023-06-19T04:21:23;22.10;99.90
11532;DHT22;5822;51.000;5.874;2023-06-19T04:23:50;22.10;99.90
11532;DHT22;5822;51.000;5.874;2023-06-19T04:26:15;22.10;99.90
11532;DHT22;5822;51.000;5.874;2023-06-19T04:28:41;22.10;99.90
11532;DHT22;5822;51.000;5.874;2023-06-19T04:31:07;22.10;99.90
11532;DHT22;5822;51.000;5.874;2023-06-19T04:33:33;22.10;99.90
11532;DHT22;5822;51.000;5.874;2023-06-19T04:35:58;22.10;99.90
11532;DHT22;5822;51.000;5.874;2023-06-19T04:38:24;22.10;99.90
11532;DHT22;5822;51.000;5.874;2023-06-19T04:40:53;22.10;99.90
11532;DHT22;5822;51.000;5.874;2023-06-19T04:43:19;22.20;99.90
11532;DHT22;5822;51.000;5.874;2023-06-19T04:45:44;22.20;99.90
11532;DHT22;5822;51.000;5.874;2023-06-19T04:48:10;22.20;99.90
11532;DHT22;5822;51.000;5.874;2023-06-19T04:50:36;22.20;99.90
11532;DHT22;5822;51.000;5.874;2023-06-19T04:53:02;22.20;99.90
11532;DHT22;5822;51.000;5.874;2023-06-19T04:55:28;22.20;99.90
11532;DHT22;5822;51.000;5.874;2023-06-19T04:57:53;22.20;99.90
11532;DHT22;5822;51.000;5.874;2023-06-19T05:00:20;22.20;99.90
11532;DHT22;5822;51.000;5.874;2023-06-19T05:02:49;22.20;99.90
11532;DHT22;5822;51.000;5.874;2023-06-19T05:05:15;22.20;99.90
11532;DHT22;5822;51.000;5.874;2023-06-19T05:07:41;22.30;99.90
11532;DHT22;5822;51.000;5.874;2023-06-19T05:10:07;22.20;99.90
11532;DHT22;5822;51.000;5.874;2023-06-19T05:12:34;22.20;99.90
11532;DHT22;5822;51.000;5.874;2023-06-19T05:15:00;22.30;99.90
11532;DHT22;5822;51.000;5.874;2023-06-19T05:17:26;22.30;99.90
11532;DHT22;5822;51.000;5.874;2023-06-19T05:19:52;22.30;99.90
11532;DHT22;5822;51.000;5.874;2023-06-19T05:22:17;22.30;99.90
11532;DHT22;5822;51.000;5.874;2023-06-19T05:24:47;22.30;99.90
11532;DHT22;5822;51.000;5.874;2023-06-19T05:27:13;22.30;99.90
11532;DHT22;5822;51.000;5.874;2023-06-19T05:29:38;22.30;99.90
11532;DHT22;5822;51.000;5.874;2023-06-19T05:32:04;22.30;99.90
11532;DHT22;5822;51.000;5.874;2023-06-19T05:34:30;22.40;99.90
11532;DHT22;5822;51.000;5.874;2023-06-19T05:36:56;22.40;99.90
11532;DHT22;5822;51.000;5.874;2023-06-19T05:39:22;22.40;99.90
11532;DHT22;5822;51.000;5.874;2023-06-19T05:41:47;22.40;99.90
11532;DHT22;5822;51.000;5.874;2023-06-19T05:44:13;22.40;99.90
11532;DHT22;5822;51.000;5.874;2023-06-19T05:46:42;22.30;99.90
11532;DHT22;5822;51.000;5.874;2023-06-19T05:49:08;22.20;99.90
11532;DHT22;5822;51.000;5.874;2023-06-19T05:51:34;22.20;99.90
11532;DHT22;5822;51.000;5.874;2023-06-19T05:53:59;22.20;99.90
11532;DHT22;5822;51.000;5.874;2023-06-19T05:56:30;22.20;99.90
11532;DHT22;5822;51.000;5.874;2023-06-19T05:58:56;22.20;99.90
11532;DHT22;5822;51.000;5.874;2023-06-19T06:01:21;22.20;99.90
11532;DHT22;5822;51.000;5.874;2023-06-19T06:03:47;22.20;99.90
11532;DHT22;5822;51.000;5.874;2023-06-19T06:06:13;22.20;99.90
11532;DHT22;5822;51.000;5.874;2023-06-19T06:08:38;22.20;99.90
11532;DHT22;5822;51.000;5.874;2023-06-19T06:11:04;22.20;99.90
11532;DHT22;5822;51.000;5.874;2023-06-19T06:13:29;22.20;99.90
11532;DHT22;5822;51.000;5.874;2023-06-19T06:15:55;22.20;99.90
11532;DHT22;5822;51.000;5.874;2023-06-19T06:18:21;22.30;99.90
11532;DHT22;5822;51.000;5.874;2023-06-19T06:20:47;22.30;99.90
11532;DHT22;5822;51.000;5.874;2023-06-19T06:23:13;22.30;99.90
11532;DHT22;5822;51.000;5.874;2023-06-19T06:25:38;22.30;99.90
11532;DHT22;5822;51.000;5.874;2023-06-19T06:28:04;22.30;99.90
11532;DHT22;5822;51.000;5.874;2023-06-19T06:30:30;22.40;99.90
11532;DHT22;5822;51.000;5.874;2023-06-19T06:32:56;22.40;99.90
11532;DHT22;5822;51.000;5.874;2023-06-19T06:35:21;22.40;99.90
11532;DHT22;5822;51.000;5.874;2023-06-19T06:37:47;22.40;99.90
11532;DHT22;5822;51.000;5.874;2023-06-19T06:40:15;22.40;99.90
11532;DHT22;5822;51.000;5.874;2023-06-19T06:42:40;22.40;99.90
11532;DHT22;5822;51.000;5.874;2023-06-19T06:45:06;22.40;99.90
11532;DHT22;5822;51.000;5.874;2023-06-19T06:47:34;22.40;99.90
11532;DHT22;5822;51.000;5.874;2023-06-19T06:50:00;22.40;99.90
11532;DHT22;5822;51.000;5.874;2023-06-19T06:52:26;22.40;99.90
11532;DHT22;5822;51.000;5.874;2023-06-19T06:54:53;22.40;99.90
11532;DHT22;5822;51.000;5.874;2023-06-19T06:57:19;22.40;99.90
11532;DHT22;5822;51.000;5.874;2023-06-19T06:59:44;22.40;99.90
11532;DHT22;5822;51.000;5.874;2023-06-19T07:02:10;22.40;99.90
11532;DHT22;5822;51.000;5.874;2023-06-19T07:04:36;22.40;99.90
11532;DHT22;5822;51.000;5.874;2023-06-19T07:07:01;22.40;99.90
11532;DHT22;5822;51.000;5.874;2023-06-19T07:09:29;22.50;99.90
11532;DHT22;5822;51.000;5.874;2023-06-19T07:11:54;22.40;99.90
11532;DHT22;5822;51.000;5.874;2023-06-19T07:14:20;22.40;99.90
11532;DHT22;5822;51.000;5.874;2023-06-19T07:16:46;22.50;99.90
11532;DHT22;5822;51.000;5.874;2023-06-19T07:19:23;22.40;99.90
11532;DHT22;5822;51.000;5.874;2023-06-19T07:21:52;22.50;99.90
11532;DHT22;5822;51.000;5.874;2023-06-19T07:24:18;22.50;99.90
11532;DHT22;5822;51.000;5.874;2023-06-19T07:26:46;22.50;99.90
11532;DHT22;5822;51.000;5.874;2023-06-19T07:29:12;22.50;99.90
11532;DHT22;5822;51.000;5.874;2023-06-19T07:31:38;22.50;99.90
11532;DHT22;5822;51.000;5.874;2023-06-19T07:34:03;22.60;99.90
11532;DHT22;5822;51.000;5.874;2023-06-19T07:36:29;22.60;99.90
11532;DHT22;5822;51.000;5.874;2023-06-19T07:38:55;22.60;99.90
11532;DHT22;5822;51.000;5.874;2023-06-19T07:41:21;22.60;99.90
11532;DHT22;5822;51.000;5.874;2023-06-19T07:43:46;22.70;99.90
11532;DHT22;5822;51.000;5.874;2023-06-19T07:46:12;22.70;99.90
11532;DHT22;5822;51.000;5.874;2023-06-19T07:48:38;22.70;99.90
11532;DHT22;5822;51.000;5.874;2023-06-19T07:51:03;22.80;99.90
11532;DHT22;5822;51.000;5.874;2023-06-19T07:53:29;22.80;99.90
11532;DHT22;5822;51.000;5.874;2023-06-19T07:55:55;22.80;99.90
11532;DHT22;5822;51.000;5.874;2023-06-19T07:58:20;22.80;99.90
11532;DHT22;5822;51.000;5.874;2023-06-19T08:00:46;22.90;99.90
11532;DHT22;5822;51.000;5.874;2023-06-19T08:03:12;23.00;99.90
11532;DHT22;5822;51.000;5.874;2023-06-19T08:05:37;23.00;99.90
11532;DHT22;5822;51.000;5.874;2023-06-19T08:08:03;23.10;99.90
11532;DHT22;5822;51.000;5.874;2023-06-19T08:10:29;23.10;99.90
11532;DHT22;5822;51.000;5.874;2023-06-19T08:12:55;23.10;99.90
11532;DHT22;5822;51.000;5.874;2023-06-19T08:15:20;23.10;99.90
11532;DHT22;5822;51.000;5.874;2023-06-19T08:17:46;23.10;99.90
11532;DHT22;5822;51.000;5.874;2023-06-19T08:20:12;23.20;99.90
11532;DHT22;5822;51.000;5.874;2023-06-19T08:22:40;23.20;99.90
11532;DHT22;5822;51.000;5.874;2023-06-19T08:25:07;23.30;99.90
11532;DHT22;5822;51.000;5.874;2023-06-19T08:27:32;23.30;99.90
11532;DHT22;5822;51.000;5.874;2023-06-19T08:29:58;23.10;99.90
11532;DHT22;5822;51.000;5.874;2023-06-19T08:32:24;23.20;99.90
11532;DHT22;5822;51.000;5.874;2023-06-19T08:34:50;23.20;99.90
11532;DHT22;5822;51.000;5.874;2023-06-19T08:37:17;23.20;99.90
11532;DHT22;5822;51.000;5.874;2023-06-19T08:39:43;23.20;99.90
11532;DHT22;5822;51.000;5.874;2023-06-19T08:42:09;23.20;99.90
11532;DHT22;5822;51.000;5.874;2023-06-19T08:44:35;23.20;99.90
11532;DHT22;5822;51.000;5.874;2023-06-19T08:47:03;23.30;99.90
11532;DHT22;5822;51.000;5.874;2023-06-19T08:49:36;23.30;99.90
11532;DHT22;5822;51.000;5.874;2023-06-19T08:52:02;23.30;99.90
11532;DHT22;5822;51.000;5.874;2023-06-19T08:54:29;23.20;99.90
11532;DHT22;5822;51.000;5.874;2023-06-19T08:56:54;23.20;99.90
11532;DHT22;5822;51.000;5.874;2023-06-19T08:59:21;23.30;99.90
11532;DHT22;5822;51.000;5.874;2023-06-19T09:01:51;23.30;99.90
11532;DHT22;5822;51.000;5.874;2023-06-19T09:04:21;23.30;99.90
11532;DHT22;5822;51.000;5.874;2023-06-19T09:06:54;23.30;99.90
11532;DHT22;5822;51.000;5.874;2023-06-19T09:09:21;23.40;99.90
11532;DHT22;5822;51.000;5.874;2023-06-19T09:17:05;23.50;99.90
11532;DHT22;5822;51.000;5.874;2023-06-19T09:19:32;23.50;99.90
11532;DHT22;5822;51.000;5.874;2023-06-19T09:22:06;23.50;99.90
11532;DHT22;5822;51.000;5.874;2023-06-19T09:24:35;23.50;99.90
11532;DHT22;5822;51.000;5.874;2023-06-19T09:27:20;23.50;99.90
11532;DHT22;5822;51.000;5.874;2023-06-19T09:29:48;23.50;99.90
11532;DHT22;5822;51.000;5.874;2023-06-19T09:32:23;23.50;99.90
11532;DHT22;5822;51.000;5.874;2023-06-19T09:34:51;23.50;99.90
11532;DHT22;5822;51.000;5.874;2023-06-19T09:37:31;23.50;99.90
11532;DHT22;5822;51.000;5.874;2023-06-19T09:40:01;23.50;99.90
11532;DHT22;5822;51.000;5.874;2023-06-19T09:42:38;23.50;99.90
11532;DHT22;5822;51.000;5.874;2023-06-19T09:45:06;23.50;99.90
11532;DHT22;5822;51.000;5.874;2023-06-19T09:47:39;23.50;99.90
11532;DHT22;5822;51.000;5.874;2023-06-19T09:50:08;23.50;99.90
11532;DHT22;5822;51.000;5.874;2023-06-19T09:52:36;23.50;99.90
11532;DHT22;5822;51.000;5.874;2023-06-19T09:55:03;23.50;99.90
11532;DHT22;5822;51.000;5.874;2023-06-19T09:57:31;23.50;99.90
11532;DHT22;5822;51.000;5.874;2023-06-19T09:59:59;23.50;99.90
11532;DHT22;5822;51.000;5.874;2023-06-19T10:02:31;23.50;99.90
11532;DHT22;5822;51.000;5.874;2023-06-19T10:04:56;23.50;99.90
11532;DHT22;5822;51.000;5.874;2023-06-19T10:07:24;23.50;99.90
11532;DHT22;5822;51.000;5.874;2023-06-19T10:10:10;23.50;99.90
11532;DHT22;5822;51.000;5.874;2023-06-19T10:17:37;23.50;99.90
11532;DHT22;5822;51.000;5.874;2023-06-19T10:20:03;23.50;99.90
11532;DHT22;5822;51.000;5.874;2023-06-19T10:22:32;23.60;99.90
11532;DHT22;5822;51.000;5.874;2023-06-19T10:24:58;23.60;99.90
11532;DHT22;5822;51.000;5.874;2023-06-19T10:27:25;23.70;99.90
11532;DHT22;5822;51.000;5.874;2023-06-19T10:29:54;23.70;99.90
11532;DHT22;5822;51.000;5.874;2023-06-19T10:32:20;23.70;99.90
11532;DHT22;5822;51.000;5.874;2023-06-19T10:34:47;23.70;99.90
11532;DHT22;5822;51.000;5.874;2023-06-19T10:37:14;23.70;99.90
11532;DHT22;5822;51.000;5.874;2023-06-19T10:39:40;23.80;99.90
11532;DHT22;5822;51.000;5.874;2023-06-19T10:42:07;23.80;99.90
11532;DHT22;5822;51.000;5.874;2023-06-19T10:44:34;23.90;99.90
11532;DHT22;5822;51.000;5.874;2023-06-19T10:47:00;24.00;99.90
11532;DHT22;5822;51.000;5.874;2023-06-19T10:49:27;24.00;99.90
11532;DHT22;5822;51.000;5.874;2023-06-19T10:51:53;24.00;99.90
11532;DHT22;5822;51.000;5.874;2023-06-19T10:54:24;24.10;99.90
11532;DHT22;5822;51.000;5.874;2023-06-19T10:56:50;24.10;99.90
11532;DHT22;5822;51.000;5.874;2023-06-19T10:59:16;24.20;99.90
11532;DHT22;5822;51.000;5.874;2023-06-19T11:01:47;24.10;99.90
11532;DHT22;5822;51.000;5.874;2023-06-19T11:04:15;24.10;99.90
11532;DHT22;5822;51.000;5.874;2023-06-19T11:06:42;24.10;99.90
11532;DHT22;5822;51.000;5.874;2023-06-19T11:09:10;24.10;99.90
11532;DHT22;5822;51.000;5.874;2023-06-19T11:11:42;24.20;99.90
11532;DHT22;5822;51.000;5.874;2023-06-19T11:14:09;24.20;99.90
11532;DHT22;5822;51.000;5.874;2023-06-19T11:16:39;24.10;99.90
11532;DHT22;5822;51.000;5.874;2023-06-19T11:19:13;24.10;99.90
11532;DHT22;5822;51.000;5.874;2023-06-19T11:21:39;24.20;99.90
11532;DHT22;5822;51.000;5.874;2023-06-19T11:24:10;24.30;99.90
11532;DHT22;5822;51.000;5.874;2023-06-19T11:26:43;24.40;99.90
11532;DHT22;5822;51.000;5.874;2023-06-19T11:29:17;24.50;99.90
11532;DHT22;5822;51.000;5.874;2023-06-19T11:31:44;24.50;99.90
11532;DHT22;5822;51.000;5.874;2023-06-19T11:34:10;24.60;99.90
11532;DHT22;5822;51.000;5.874;2023-06-19T11:36:37;24.60;99.90
11532;DHT22;5822;51.000;5.874;2023-06-19T11:39:04;24.60;99.90
11532;DHT22;5822;51.000;5.874;2023-06-19T11:41:34;24.60;99.90
11532;DHT22;5822;51.000;5.874;2023-06-19T11:44:02;24.60;99.90
11532;DHT22;5822;51.000;5.874;2023-06-19T11:46:32;24.60;99.90
11532;DHT22;5822;51.000;5.874;2023-06-19T11:51:34;24.60;99.90
11532;DHT22;5822;51.000;5.874;2023-06-19T11:53:59;24.60;99.90
11532;DHT22;5822;51.000;5.874;2023-06-19T11:56:25;24.60;99.90
11532;DHT22;5822;51.000;5.874;2023-06-19T11:58:51;24.60;99.90
11532;DHT22;5822;51.000;5.874;2023-06-19T12:01:16;24.50;99.90
11532;DHT22;5822;51.000;5.874;2023-06-19T12:03:42;24.50;99.90
11532;DHT22;5822;51.000;5.874;2023-06-19T12:06:07;24.50;99.90
11532;DHT22;5822;51.000;5.874;2023-06-19T12:08:33;24.50;99.90
11532;DHT22;5822;51.000;5.874;2023-06-19T12:10:59;24.40;99.90
11532;DHT22;5822;51.000;5.874;2023-06-19T12:13:24;24.50;99.90
11532;DHT22;5822;51.000;5.874;2023-06-19T12:15:50;24.40;99.90
11532;DHT22;5822;51.000;5.874;2023-06-19T12:18:15;24.30;99.90
11532;DHT22;5822;51.000;5.874;2023-06-19T12:20:41;24.40;99.90
11532;DHT22;5822;51.000;5.874;2023-06-19T12:23:07;24.40;99.90
11532;DHT22;5822;51.000;5.874;2023-06-19T12:25:32;24.30;99.90
11532;DHT22;5822;51.000;5.874;2023-06-19T12:27:58;24.20;99.90
11532;DHT22;5822;51.000;5.874;2023-06-19T12:30:23;24.20;99.90
11532;DHT22;5822;51.000;5.874;2023-06-19T12:32:50;24.30;99.90
11532;DHT22;5822;51.000;5.874;2023-06-19T12:35:16;24.30;99.90
11532;DHT22;5822;51.000;5.874;2023-06-19T12:37:42;24.20;99.90
11532;DHT22;5822;51.000;5.874;2023-06-19T12:40:08;24.20;99.90
11532;DHT22;5822;51.000;5.874;2023-06-19T12:42:36;24.10;99.90
11532;DHT22;5822;51.000;5.874;2023-06-19T12:45:03;24.10;99.90
11532;DHT22;5822;51.000;5.874;2023-06-19T12:47:29;24.10;99.90
11532;DHT22;5822;51.000;5.874;2023-06-19T12:49:54;24.10;99.90
11532;DHT22;5822;51.000;5.874;2023-06-19T12:52:20;24.20;99.90
11532;DHT22;5822;51.000;5.874;2023-06-19T12:54:45;24.10;99.90
11532;DHT22;5822;51.000;5.874;2023-06-19T12:57:11;24.20;99.90
11532;DHT22;5822;51.000;5.874;2023-06-19T12:59:37;24.10;99.90
11532;DHT22;5822;51.000;5.874;2023-06-19T13:02:03;24.10;99.90
11532;DHT22;5822;51.000;5.874;2023-06-19T13:04:29;24.10;99.90
11532;DHT22;5822;51.000;5.874;2023-06-19T13:06:54;24.10;99.90
11532;DHT22;5822;51.000;5.874;2023-06-19T13:09:20;24.20;99.90
11532;DHT22;5822;51.000;5.874;2023-06-19T13:11:46;24.50;99.90
11532;DHT22;5822;51.000;5.874;2023-06-19T13:14:11;24.90;99.90
11532;DHT22;5822;51.000;5.874;2023-06-19T13:16:37;25.30;99.90
11532;DHT22;5822;51.000;5.874;2023-06-19T13:19:02;25.90;99.90
11532;DHT22;5822;51.000;5.874;2023-06-19T13:21:28;26.40;99.90
11532;DHT22;5822;51.000;5.874;2023-06-19T13:23:54;26.70;99.90
11532;DHT22;5822;51.000;5.874;2023-06-19T13:26:19;27.10;99.90
11532;DHT22;5822;51.000;5.874;2023-06-19T13:28:45;27.40;99.90
11532;DHT22;5822;51.000;5.874;2023-06-19T13:31:11;27.60;99.90
11532;DHT22;5822;51.000;5.874;2023-06-19T13:33:37;27.70;99.90
11532;DHT22;5822;51.000;5.874;2023-06-19T13:36:03;27.70;99.90
11532;DHT22;5822;51.000;5.874;2023-06-19T13:38:29;27.80;99.90
11532;DHT22;5822;51.000;5.874;2023-06-19T13:40:54;27.90;99.90
11532;DHT22;5822;51.000;5.874;2023-06-19T13:43:20;27.90;99.90
11532;DHT22;5822;51.000;5.874;2023-06-19T13:45:48;28.10;99.90
11532;DHT22;5822;51.000;5.874;2023-06-19T13:48:14;28.10;99.90
11532;DHT22;5822;51.000;5.874;2023-06-19T13:50:40;27.90;99.90
11532;DHT22;5822;51.000;5.874;2023-06-19T13:53:05;27.80;99.90
11532;DHT22;5822;51.000;5.874;2023-06-19T13:55:31;27.80;99.90
11532;DHT22;5822;51.000;5.874;2023-06-19T13:57:57;27.50;99.90
11532;DHT22;5822;51.000;5.874;2023-06-19T14:00:23;27.40;99.90
11532;DHT22;5822;51.000;5.874;2023-06-19T14:02:48;27.40;99.90
11532;DHT22;5822;51.000;5.874;2023-06-19T14:05:15;27.60;99.90
11532;DHT22;5822;51.000;5.874;2023-06-19T14:07:42;27.70;99.90
11532;DHT22;5822;51.000;5.874;2023-06-19T14:10:08;27.70;99.90
11532;DHT22;5822;51.000;5.874;2023-06-19T14:12:34;27.60;99.90
11532;DHT22;5822;51.000;5.874;2023-06-19T14:14:59;27.40;99.90
11532;DHT22;5822;51.000;5.874;2023-06-19T14:17:25;27.20;99.90
11532;DHT22;5822;51.000;5.874;2023-06-19T14:19:51;27.10;99.90
11532;DHT22;5822;51.000;5.874;2023-06-19T14:22:17;27.00;99.90
11532;DHT22;5822;51.000;5.874;2023-06-19T14:24:43;27.00;99.90
11532;DHT22;5822;51.000;5.874;2023-06-19T14:27:09;26.90;99.90
11532;DHT22;5822;51.000;5.874;2023-06-19T14:29:34;26.70;99.90
11532;DHT22;5822;51.000;5.874;2023-06-19T14:32:00;26.60;99.90
11532;DHT22;5822;51.000;5.874;2023-06-19T14:34:26;26.70;99.90
11532;DHT22;5822;51.000;5.874;2023-06-19T14:36:51;26.80;99.90
11532;DHT22;5822;51.000;5.874;2023-06-19T14:39:17;26.90;99.90
11532;DHT22;5822;51.000;5.874;2023-06-19T14:41:43;27.10;99.90
11532;DHT22;5822;51.000;5.874;2023-06-19T14:44:08;27.00;99.90
11532;DHT22;5822;51.000;5.874;2023-06-19T14:46:34;26.90;99.90
11532;DHT22;5822;51.000;5.874;2023-06-19T14:49:11;26.70;99.90
11532;DHT22;5822;51.000;5.874;2023-06-19T14:51:41;26.60;99.90
11532;DHT22;5822;51.000;5.874;2023-06-19T14:54:07;26.50;99.90
11532;DHT22;5822;51.000;5.874;2023-06-19T14:56:32;26.30;99.90
11532;DHT22;5822;51.000;5.874;2023-06-19T14:58:58;26.20;99.90
11532;DHT22;5822;51.000;5.874;2023-06-19T15:01:25;26.00;99.90
11532;DHT22;5822;51.000;5.874;2023-06-19T15:03:50;25.90;99.90
11532;DHT22;5822;51.000;5.874;2023-06-19T15:06:16;25.70;99.90
11532;DHT22;5822;51.000;5.874;2023-06-19T15:08:42;25.60;99.90
11532;DHT22;5822;51.000;5.874;2023-06-19T15:11:08;25.50;99.90
11532;DHT22;5822;51.000;5.874;2023-06-19T15:13:33;25.40;99.90
11532;DHT22;5822;51.000;5.874;2023-06-19T15:15:59;25.30;99.90
11532;DHT22;5822;51.000;5.874;2023-06-19T15:18:26;25.10;99.90
11532;DHT22;5822;51.000;5.874;2023-06-19T15:20:52;25.10;99.90
11532;DHT22;5822;51.000;5.874;2023-06-19T15:23:17;25.20;99.90
11532;DHT22;5822;51.000;5.874;2023-06-19T15:25:43;25.10;99.90
11532;DHT22;5822;51.000;5.874;2023-06-19T15:28:09;25.10;99.90
11532;DHT22;5822;51.000;5.874;2023-06-19T15:30:35;25.00;99.90
11532;DHT22;5822;51.000;5.874;2023-06-19T15:33:01;25.00;99.90
11532;DHT22;5822;51.000;5.874;2023-06-19T15:35:27;25.00;99.90
11532;DHT22;5822;51.000;5.874;2023-06-19T15:37:53;25.10;99.90
11532;DHT22;5822;51.000;5.874;2023-06-19T15:40:18;25.00;99.90
11532;DHT22;5822;51.000;5.874;2023-06-19T15:42:44;24.90;99.90
11532;DHT22;5822;51.000;5.874;2023-06-19T15:45:10;24.90;99.90
11532;DHT22;5822;51.000;5.874;2023-06-19T15:47:36;24.80;99.90
11532;DHT22;5822;51.000;5.874;2023-06-19T15:50:02;24.80;99.90
11532;DHT22;5822;51.000;5.874;2023-06-19T15:52:29;24.80;99.90
11532;DHT22;5822;51.000;5.874;2023-06-19T15:54:55;24.80;99.90
11532;DHT22;5822;51.000;5.874;2023-06-19T15:57:21;24.70;99.90
11532;DHT22;5822;51.000;5.874;2023-06-19T15:59:46;24.70;99.90